TOM6EX EGGD-LEMH
Flight info
| Callsign | TOM6EX |
|---|---|
| Flight time | 2h 7m |
| Altitude | 35000 |
| Route | EXMOR N92 DAWLY N864 BHD DCT MANIG DCT BADUR DCT KORER DCT TERPO DCT NTS DCT USODA DCT LUGEN DCT TUPAR DCT CNA DCT SECHE DCT AGN DCT TOU DCT LOMRA DCT ROCAN DCT GEANT DCT GIR DCT SALON DCT SULID DCT DIPES N727 SARGO |
| Aircraft | B738/M-SDE2E3FGHIRWXY/LB1 |
Departure
| Time | 2026-05-05 18:22 |
|---|---|
| Airport | Bristol Airport (EGGD) |
Arrival
| Time | 2026-05-05 20:30 |
|---|---|
| Airport | Menorca Airport (LEMH) |
| Time | Latitude | Longitude | Altitude | Speed | Heading |
|---|---|---|---|---|---|
| 2026-05-05 17:56 | 51.38547 | -2.71597 | 619 ft | 0 kts | 356° |
| 2026-05-05 18:16 | 51.38527 | -2.71595 | 623 ft | 4 kts | 356° |
| 2026-05-05 18:16 | 51.38506 | -2.71593 | 621 ft | 4 kts | 335° |
| 2026-05-05 18:16 | 51.38495 | -2.71567 | 626 ft | 4 kts | 271° |
| 2026-05-05 18:16 | 51.38496 | -2.71527 | 624 ft | 4 kts | 266° |
| 2026-05-05 18:17 | 51.38497 | -2.71502 | 626 ft | 0 kts | 266° |
| 2026-05-05 18:18 | 51.38497 | -2.71503 | 626 ft | 0 kts | 266° |
| 2026-05-05 18:19 | 51.38496 | -2.71528 | 624 ft | 5 kts | 264° |
| 2026-05-05 18:19 | 51.38457 | -2.71610 | 619 ft | 16 kts | 225° |
| 2026-05-05 18:19 | 51.38433 | -2.71796 | 605 ft | 18 kts | 266° |
| 2026-05-05 18:19 | 51.38431 | -2.72004 | 605 ft | 19 kts | 270° |
| 2026-05-05 18:20 | 51.38423 | -2.72216 | 616 ft | 19 kts | 266° |
| 2026-05-05 18:20 | 51.38416 | -2.72421 | 614 ft | 18 kts | 266° |
| 2026-05-05 18:20 | 51.38406 | -2.72638 | 623 ft | 21 kts | 267° |
| 2026-05-05 18:20 | 51.38399 | -2.72892 | 614 ft | 24 kts | 268° |
| 2026-05-05 18:21 | 51.38387 | -2.73183 | 614 ft | 25 kts | 265° |
| 2026-05-05 18:21 | 51.38274 | -2.73337 | 620 ft | 24 kts | 172° |
| 2026-05-05 18:21 | 51.38213 | -2.73273 | 624 ft | 10 kts | 75° |
| 2026-05-05 18:21 | 51.38219 | -2.73161 | 631 ft | 12 kts | 86° |
| 2026-05-05 18:22 | 51.38240 | -2.72669 | 632 ft | 90 kts | 87° |
| 2026-05-05 18:22 | 51.38293 | -2.71171 | 615 ft | 175 kts | 84° |
| 2026-05-05 18:22 | 51.38379 | -2.69030 | 1242 ft | 203 kts | 81° |
| 2026-05-05 18:22 | 51.38465 | -2.66839 | 2505 ft | 198 kts | 83° |
| 2026-05-05 18:23 | 51.38529 | -2.64539 | 2954 ft | 222 kts | 84° |
| 2026-05-05 18:23 | 51.38599 | -2.61976 | 3479 ft | 235 kts | 83° |
| 2026-05-05 18:23 | 51.38678 | -2.59249 | 3964 ft | 253 kts | 85° |
| 2026-05-05 18:23 | 51.38663 | -2.56350 | 4765 ft | 266 kts | 96° |
| 2026-05-05 18:24 | 51.38094 | -2.53523 | 5826 ft | 271 kts | 115° |
| 2026-05-05 18:24 | 51.36938 | -2.51071 | 6806 ft | 278 kts | 136° |
| 2026-05-05 18:24 | 51.35314 | -2.49406 | 7781 ft | 282 kts | 158° |
| 2026-05-05 18:24 | 51.33367 | -2.48750 | 8693 ft | 290 kts | 180° |
| 2026-05-05 18:25 | 51.31393 | -2.49268 | 9709 ft | 287 kts | 202° |
| 2026-05-05 18:25 | 51.30207 | -2.50216 | 10288 ft | 291 kts | 216° |
| 2026-05-05 18:25 | 51.28316 | -2.53474 | 10735 ft | 320 kts | 245° |
| 2026-05-05 18:25 | 51.27683 | -2.56984 | 11075 ft | 338 kts | 267° |
| 2026-05-05 18:26 | 51.27712 | -2.60773 | 11797 ft | 345 kts | 275° |
| 2026-05-05 18:26 | 51.27931 | -2.64561 | 12711 ft | 347 kts | 276° |
| 2026-05-05 18:26 | 51.28174 | -2.68438 | 13536 ft | 353 kts | 276° |
| 2026-05-05 18:26 | 51.28393 | -2.72390 | 14298 ft | 357 kts | 275° |
| 2026-05-05 18:27 | 51.28580 | -2.76358 | 15161 ft | 359 kts | 275° |
| 2026-05-05 18:27 | 51.28744 | -2.80325 | 15901 ft | 364 kts | 275° |
| 2026-05-05 18:27 | 51.28897 | -2.84378 | 16702 ft | 367 kts | 274° |
| 2026-05-05 18:27 | 51.29045 | -2.88505 | 17414 ft | 372 kts | 274° |
| 2026-05-05 18:28 | 51.29335 | -2.96747 | 18927 ft | 377 kts | 273° |
| 2026-05-05 18:28 | 51.29185 | -3.00962 | 19555 ft | 381 kts | 256° |
| 2026-05-05 18:28 | 51.28080 | -3.04774 | 20276 ft | 383 kts | 239° |
| 2026-05-05 18:29 | 51.26693 | -3.08428 | 20954 ft | 386 kts | 241° |
| 2026-05-05 18:29 | 51.25384 | -3.12205 | 21542 ft | 390 kts | 243° |
| 2026-05-05 18:29 | 51.24137 | -3.16080 | 22207 ft | 392 kts | 244° |
| 2026-05-05 18:29 | 51.22916 | -3.19994 | 22885 ft | 394 kts | 244° |
| 2026-05-05 18:30 | 51.21691 | -3.23934 | 23525 ft | 396 kts | 244° |
| 2026-05-05 18:30 | 51.20468 | -3.27843 | 24038 ft | 399 kts | 244° |
| 2026-05-05 18:30 | 51.19066 | -3.31670 | 24510 ft | 403 kts | 231° |
| 2026-05-05 18:30 | 51.16938 | -3.34649 | 24984 ft | 409 kts | 213° |
| 2026-05-05 18:31 | 51.14339 | -3.36560 | 25481 ft | 415 kts | 197° |
| 2026-05-05 18:31 | 51.11511 | -3.37318 | 25989 ft | 419 kts | 188° |
| 2026-05-05 18:31 | 51.08591 | -3.37797 | 26480 ft | 421 kts | 187° |
| 2026-05-05 18:31 | 51.05648 | -3.38237 | 26928 ft | 424 kts | 187° |
| 2026-05-05 18:32 | 51.02732 | -3.38683 | 27377 ft | 426 kts | 187° |
| 2026-05-05 18:32 | 50.99763 | -3.39159 | 27833 ft | 428 kts | 188° |
| 2026-05-05 18:32 | 50.96822 | -3.39652 | 28274 ft | 430 kts | 188° |
| 2026-05-05 18:32 | 50.93830 | -3.40165 | 28712 ft | 432 kts | 188° |
| 2026-05-05 18:33 | 50.90831 | -3.40685 | 29125 ft | 434 kts | 188° |
| 2026-05-05 18:33 | 50.87814 | -3.41208 | 29531 ft | 436 kts | 188° |
| 2026-05-05 18:33 | 50.84779 | -3.41732 | 30004 ft | 436 kts | 188° |
| 2026-05-05 18:33 | 50.81803 | -3.42244 | 30491 ft | 434 kts | 188° |
| 2026-05-05 18:34 | 50.78788 | -3.42761 | 30903 ft | 434 kts | 188° |
| 2026-05-05 18:34 | 50.75815 | -3.43269 | 31226 ft | 436 kts | 188° |
| 2026-05-05 18:34 | 50.72753 | -3.43791 | 31585 ft | 437 kts | 187° |
| 2026-05-05 18:34 | 50.69759 | -3.44300 | 31985 ft | 437 kts | 187° |
| 2026-05-05 18:35 | 50.66738 | -3.44814 | 32390 ft | 436 kts | 187° |
| 2026-05-05 18:35 | 50.63709 | -3.45329 | 32789 ft | 436 kts | 187° |
| 2026-05-05 18:35 | 50.60718 | -3.45837 | 33139 ft | 437 kts | 187° |
| 2026-05-05 18:35 | 50.57692 | -3.46357 | 33650 ft | 433 kts | 186° |
| 2026-05-05 18:36 | 50.54712 | -3.46860 | 34289 ft | 426 kts | 186° |
| 2026-05-05 18:36 | 50.51751 | -3.47354 | 34504 ft | 429 kts | 186° |
| 2026-05-05 18:36 | 50.48763 | -3.47860 | 34629 ft | 434 kts | 186° |
| 2026-05-05 18:36 | 50.45775 | -3.48378 | 34884 ft | 434 kts | 186° |
| 2026-05-05 18:37 | 50.39826 | -3.49021 | 34955 ft | 427 kts | 176° |
| 2026-05-05 18:37 | 50.33920 | -3.47267 | 34974 ft | 435 kts | 166° |
| 2026-05-05 18:38 | 50.28067 | -3.44907 | 34959 ft | 437 kts | 166° |
| 2026-05-05 18:38 | 50.22168 | -3.42564 | 34960 ft | 437 kts | 166° |
| 2026-05-05 18:39 | 50.16276 | -3.40283 | 34956 ft | 436 kts | 166° |
| 2026-05-05 18:39 | 50.10348 | -3.38092 | 34964 ft | 435 kts | 167° |
| 2026-05-05 18:40 | 50.04500 | -3.35823 | 34953 ft | 435 kts | 166° |
| 2026-05-05 18:40 | 49.98616 | -3.33538 | 34958 ft | 434 kts | 166° |
| 2026-05-05 18:41 | 49.92774 | -3.31308 | 34959 ft | 434 kts | 166° |
| 2026-05-05 18:41 | 49.86898 | -3.29082 | 34950 ft | 434 kts | 166° |
| 2026-05-05 18:42 | 49.81042 | -3.26862 | 34962 ft | 435 kts | 166° |
| 2026-05-05 18:42 | 49.75139 | -3.24756 | 34959 ft | 437 kts | 169° |
| 2026-05-05 18:43 | 49.69131 | -3.23042 | 34956 ft | 438 kts | 170° |
| 2026-05-05 18:43 | 49.63100 | -3.21367 | 34956 ft | 440 kts | 169° |
| 2026-05-05 18:44 | 49.57084 | -3.19651 | 34958 ft | 441 kts | 169° |
| 2026-05-05 18:44 | 49.51057 | -3.17907 | 34957 ft | 442 kts | 169° |
| 2026-05-05 18:45 | 49.45997 | -3.16441 | 34953 ft | 443 kts | 169° |
| 2026-05-05 18:45 | 49.38928 | -3.14397 | 34958 ft | 444 kts | 169° |
| 2026-05-05 18:46 | 49.33870 | -3.12939 | 34960 ft | 445 kts | 169° |
| 2026-05-05 18:46 | 49.27767 | -3.11184 | 34956 ft | 445 kts | 169° |
| 2026-05-05 18:47 | 49.21701 | -3.09446 | 34960 ft | 445 kts | 169° |
| 2026-05-05 18:47 | 49.15613 | -3.07704 | 34956 ft | 445 kts | 169° |
| 2026-05-05 18:48 | 49.09496 | -3.05958 | 34952 ft | 445 kts | 169° |
| 2026-05-05 18:48 | 49.03450 | -3.04238 | 34961 ft | 444 kts | 168° |
| 2026-05-05 18:49 | 48.99831 | -3.03210 | 34961 ft | 443 kts | 169° |
| 2026-05-05 18:49 | 48.94792 | -3.01781 | 34947 ft | 441 kts | 169° |
| 2026-05-05 18:50 | 48.89938 | -3.00407 | 34953 ft | 440 kts | 169° |
| 2026-05-05 18:50 | 48.84171 | -2.98779 | 34955 ft | 438 kts | 169° |
| 2026-05-05 18:51 | 48.78163 | -2.97085 | 34958 ft | 437 kts | 169° |
| 2026-05-05 18:51 | 48.72209 | -2.95412 | 34962 ft | 436 kts | 169° |
| 2026-05-05 18:52 | 48.66354 | -2.93198 | 34972 ft | 435 kts | 163° |
| 2026-05-05 18:52 | 48.60556 | -2.90512 | 34976 ft | 436 kts | 162° |
| 2026-05-05 18:53 | 48.54740 | -2.87852 | 34957 ft | 436 kts | 162° |
| 2026-05-05 18:53 | 48.48931 | -2.85236 | 34961 ft | 436 kts | 162° |
| 2026-05-05 18:54 | 48.43100 | -2.82637 | 34950 ft | 436 kts | 162° |
| 2026-05-05 18:54 | 48.37302 | -2.80080 | 34948 ft | 436 kts | 163° |
| 2026-05-05 18:55 | 48.31470 | -2.77506 | 34953 ft | 436 kts | 163° |
| 2026-05-05 18:55 | 48.25669 | -2.74950 | 34955 ft | 435 kts | 162° |
| 2026-05-05 18:56 | 48.19882 | -2.72403 | 34945 ft | 434 kts | 161° |
| 2026-05-05 18:56 | 48.14073 | -2.69884 | 34948 ft | 434 kts | 162° |
| 2026-05-05 18:57 | 48.08269 | -2.67337 | 34941 ft | 435 kts | 162° |
| 2026-05-05 18:57 | 48.02443 | -2.64786 | 34945 ft | 435 kts | 162° |
| 2026-05-05 18:58 | 47.96655 | -2.62269 | 34951 ft | 436 kts | 163° |
| 2026-05-05 18:58 | 47.90810 | -2.59724 | 34944 ft | 437 kts | 162° |
| 2026-05-05 18:59 | 47.84981 | -2.57211 | 34942 ft | 437 kts | 162° |
| 2026-05-05 18:59 | 47.79110 | -2.54656 | 34911 ft | 439 kts | 162° |
| 2026-05-05 19:00 | 47.73259 | -2.52178 | 34917 ft | 439 kts | 162° |
| 2026-05-05 19:00 | 47.70398 | -2.50555 | 34910 ft | 439 kts | 151° |
| 2026-05-05 19:00 | 47.67804 | -2.48167 | 34921 ft | 437 kts | 142° |
| 2026-05-05 19:01 | 47.63536 | -2.41877 | 34927 ft | 435 kts | 130° |
| 2026-05-05 19:01 | 47.59613 | -2.34994 | 34916 ft | 436 kts | 130° |
| 2026-05-05 19:02 | 47.55694 | -2.28176 | 34917 ft | 436 kts | 130° |
| 2026-05-05 19:02 | 47.51744 | -2.21423 | 34908 ft | 435 kts | 130° |
| 2026-05-05 19:03 | 47.47764 | -2.14662 | 34907 ft | 434 kts | 130° |
| 2026-05-05 19:03 | 47.43802 | -2.07946 | 34915 ft | 434 kts | 130° |
| 2026-05-05 19:04 | 47.39823 | -2.01214 | 34907 ft | 434 kts | 130° |
| 2026-05-05 19:04 | 47.35871 | -1.94534 | 34911 ft | 432 kts | 131° |
| 2026-05-05 19:05 | 47.31915 | -1.87886 | 34899 ft | 432 kts | 131° |
| 2026-05-05 19:05 | 47.27983 | -1.81245 | 34882 ft | 431 kts | 131° |
| 2026-05-05 19:06 | 47.24023 | -1.74576 | 34887 ft | 432 kts | 131° |
| 2026-05-05 19:06 | 47.20072 | -1.67949 | 34885 ft | 432 kts | 131° |
| 2026-05-05 19:07 | 47.16064 | -1.61318 | 34890 ft | 433 kts | 133° |
| 2026-05-05 19:07 | 47.11693 | -1.55257 | 34882 ft | 435 kts | 139° |
| 2026-05-05 19:08 | 47.07116 | -1.49430 | 34889 ft | 437 kts | 139° |
| 2026-05-05 19:08 | 47.02537 | -1.43491 | 34876 ft | 439 kts | 138° |
| 2026-05-05 19:09 | 46.97989 | -1.37536 | 34886 ft | 441 kts | 138° |
| 2026-05-05 19:09 | 46.93390 | -1.31517 | 34887 ft | 443 kts | 138° |
| 2026-05-05 19:10 | 46.88797 | -1.25527 | 34879 ft | 443 kts | 138° |
| 2026-05-05 19:10 | 46.84203 | -1.19573 | 34889 ft | 440 kts | 139° |
| 2026-05-05 19:11 | 46.79680 | -1.13706 | 34875 ft | 431 kts | 138° |
| 2026-05-05 19:11 | 46.75200 | -1.07880 | 34884 ft | 432 kts | 139° |
| 2026-05-05 19:12 | 46.70689 | -1.02049 | 34881 ft | 434 kts | 139° |
| 2026-05-05 19:12 | 46.66158 | -0.96206 | 34887 ft | 435 kts | 139° |
| 2026-05-05 19:13 | 46.61644 | -0.90384 | 34880 ft | 436 kts | 138° |
| 2026-05-05 19:13 | 46.57072 | -0.84514 | 34879 ft | 437 kts | 139° |
| 2026-05-05 19:14 | 46.52518 | -0.78654 | 34890 ft | 438 kts | 139° |
| 2026-05-05 19:14 | 46.47943 | -0.72771 | 34884 ft | 439 kts | 139° |
| 2026-05-05 19:15 | 46.43219 | -0.67215 | 34885 ft | 438 kts | 149° |
| 2026-05-05 19:15 | 46.37672 | -0.63709 | 34899 ft | 437 kts | 162° |
| 2026-05-05 19:16 | 46.31846 | -0.61097 | 34883 ft | 437 kts | 163° |
| 2026-05-05 19:16 | 46.26062 | -0.58514 | 34891 ft | 436 kts | 163° |
| 2026-05-05 19:17 | 46.20290 | -0.55885 | 34889 ft | 435 kts | 162° |
| 2026-05-05 19:17 | 46.14524 | -0.53237 | 34892 ft | 435 kts | 163° |
| 2026-05-05 19:18 | 46.08748 | -0.50609 | 34898 ft | 435 kts | 163° |
| 2026-05-05 19:18 | 46.03002 | -0.47977 | 34906 ft | 435 kts | 162° |
| 2026-05-05 19:19 | 45.97220 | -0.45312 | 34909 ft | 435 kts | 163° |
| 2026-05-05 19:19 | 45.91472 | -0.42710 | 34892 ft | 436 kts | 163° |
| 2026-05-05 19:20 | 45.85679 | -0.40089 | 34897 ft | 436 kts | 163° |
| 2026-05-05 19:20 | 45.79907 | -0.37477 | 34906 ft | 437 kts | 163° |
| 2026-05-05 19:21 | 45.74083 | -0.34845 | 34904 ft | 437 kts | 163° |
| 2026-05-05 19:21 | 45.68290 | -0.32232 | 34911 ft | 437 kts | 163° |
| 2026-05-05 19:22 | 45.62615 | -0.29087 | 34918 ft | 438 kts | 155° |
| 2026-05-05 19:22 | 45.57171 | -0.25252 | 34911 ft | 439 kts | 155° |
| 2026-05-05 19:23 | 45.51680 | -0.21360 | 34913 ft | 439 kts | 155° |
| 2026-05-05 19:23 | 45.46206 | -0.17535 | 34914 ft | 439 kts | 155° |
| 2026-05-05 19:24 | 45.40697 | -0.13738 | 34916 ft | 439 kts | 155° |
| 2026-05-05 19:24 | 45.35207 | -0.09974 | 34920 ft | 439 kts | 155° |
| 2026-05-05 19:25 | 45.29712 | -0.06215 | 34925 ft | 439 kts | 155° |
| 2026-05-05 19:25 | 45.24213 | -0.02460 | 34925 ft | 439 kts | 156° |
| 2026-05-05 19:26 | 45.18692 | 0.01303 | 34922 ft | 439 kts | 156° |
| 2026-05-05 19:26 | 45.13179 | 0.05038 | 34927 ft | 438 kts | 156° |
| 2026-05-05 19:27 | 45.07708 | 0.08762 | 34935 ft | 438 kts | 156° |
| 2026-05-05 19:27 | 45.02200 | 0.12496 | 34941 ft | 438 kts | 156° |
| 2026-05-05 19:28 | 44.96713 | 0.16196 | 34934 ft | 437 kts | 157° |
| 2026-05-05 19:28 | 44.91246 | 0.19892 | 34942 ft | 437 kts | 156° |
| 2026-05-05 19:29 | 44.85728 | 0.23613 | 34939 ft | 438 kts | 156° |
| 2026-05-05 19:29 | 44.80246 | 0.27288 | 34942 ft | 438 kts | 157° |
| 2026-05-05 19:30 | 44.74739 | 0.30975 | 34940 ft | 439 kts | 157° |
| 2026-05-05 19:30 | 44.69203 | 0.34676 | 34944 ft | 439 kts | 157° |
| 2026-05-05 19:31 | 44.63693 | 0.38352 | 34934 ft | 440 kts | 157° |
| 2026-05-05 19:31 | 44.58170 | 0.42031 | 34945 ft | 439 kts | 157° |
| 2026-05-05 19:32 | 44.52676 | 0.45682 | 34946 ft | 439 kts | 157° |
| 2026-05-05 19:32 | 44.47148 | 0.49349 | 34952 ft | 439 kts | 157° |
| 2026-05-05 19:33 | 44.41618 | 0.53001 | 34946 ft | 438 kts | 158° |
| 2026-05-05 19:33 | 44.36121 | 0.56600 | 34959 ft | 438 kts | 158° |
| 2026-05-05 19:34 | 44.31521 | 0.59604 | 34961 ft | 438 kts | 158° |
| 2026-05-05 19:35 | 44.23268 | 0.64986 | 34970 ft | 438 kts | 158° |
| 2026-05-05 19:35 | 44.17728 | 0.68592 | 34961 ft | 438 kts | 158° |
| 2026-05-05 19:36 | 44.12207 | 0.72177 | 34969 ft | 438 kts | 158° |
| 2026-05-05 19:36 | 44.06655 | 0.75775 | 34964 ft | 438 kts | 158° |
| 2026-05-05 19:37 | 44.01136 | 0.79346 | 34954 ft | 438 kts | 159° |
| 2026-05-05 19:37 | 43.95629 | 0.82902 | 34965 ft | 438 kts | 159° |
| 2026-05-05 19:38 | 43.90234 | 0.86901 | 34969 ft | 444 kts | 146° |
| 2026-05-05 19:38 | 43.85930 | 0.93063 | 34969 ft | 453 kts | 128° |
| 2026-05-05 19:39 | 43.82499 | 1.00433 | 34950 ft | 454 kts | 126° |
| 2026-05-05 19:39 | 43.79111 | 1.07790 | 34963 ft | 454 kts | 127° |
| 2026-05-05 19:40 | 43.75670 | 1.15094 | 34958 ft | 454 kts | 127° |
| 2026-05-05 19:40 | 43.72185 | 1.22423 | 34971 ft | 455 kts | 128° |
| 2026-05-05 19:41 | 43.68717 | 1.29703 | 34969 ft | 455 kts | 128° |
| 2026-05-05 19:41 | 43.64963 | 1.36682 | 34974 ft | 452 kts | 133° |
| 2026-05-05 19:42 | 43.60945 | 1.43389 | 34950 ft | 452 kts | 134° |
| 2026-05-05 19:42 | 43.56957 | 1.50074 | 34984 ft | 453 kts | 134° |
| 2026-05-05 19:43 | 43.52992 | 1.56806 | 34975 ft | 453 kts | 134° |
| 2026-05-05 19:43 | 43.49011 | 1.63581 | 34982 ft | 453 kts | 134° |
| 2026-05-05 19:44 | 43.45047 | 1.70311 | 34984 ft | 453 kts | 134° |
| 2026-05-05 19:44 | 43.41082 | 1.77024 | 34961 ft | 452 kts | 134° |
| 2026-05-05 19:45 | 43.37126 | 1.83682 | 34979 ft | 450 kts | 137° |
| 2026-05-05 19:45 | 43.34799 | 1.86476 | 34981 ft | 438 kts | 154° |
| 2026-05-05 19:45 | 43.32067 | 1.88221 | 34992 ft | 428 kts | 168° |
| 2026-05-05 19:45 | 43.29180 | 1.88986 | 34985 ft | 419 kts | 180° |
| 2026-05-05 19:46 | 43.26295 | 1.89239 | 34992 ft | 419 kts | 181° |
| 2026-05-05 19:46 | 43.20467 | 1.89695 | 34970 ft | 421 kts | 181° |
| 2026-05-05 19:47 | 43.14595 | 1.90205 | 34981 ft | 422 kts | 181° |
| 2026-05-05 19:47 | 43.08711 | 1.90757 | 34988 ft | 424 kts | 180° |
| 2026-05-05 19:48 | 43.02842 | 1.91320 | 34983 ft | 424 kts | 181° |
| 2026-05-05 19:48 | 42.96980 | 1.91883 | 34993 ft | 422 kts | 181° |
| 2026-05-05 19:49 | 42.91113 | 1.92443 | 34991 ft | 421 kts | 181° |
| 2026-05-05 19:49 | 42.85300 | 1.92995 | 34985 ft | 420 kts | 181° |
| 2026-05-05 19:50 | 42.79474 | 1.93549 | 34989 ft | 418 kts | 181° |
| 2026-05-05 19:50 | 42.73684 | 1.94097 | 34990 ft | 417 kts | 181° |
| 2026-05-05 19:51 | 42.67925 | 1.95493 | 34999 ft | 428 kts | 165° |
| 2026-05-05 19:51 | 42.62724 | 1.99610 | 34973 ft | 444 kts | 147° |
| 2026-05-05 19:52 | 42.58018 | 2.05000 | 34959 ft | 444 kts | 146° |
| 2026-05-05 19:52 | 42.53284 | 2.10427 | 34963 ft | 443 kts | 147° |
| 2026-05-05 19:53 | 42.48555 | 2.15735 | 34960 ft | 444 kts | 147° |
| 2026-05-05 19:53 | 42.43758 | 2.21086 | 34961 ft | 445 kts | 147° |
| 2026-05-05 19:54 | 42.38989 | 2.26408 | 34936 ft | 446 kts | 147° |
| 2026-05-05 19:54 | 42.34218 | 2.31735 | 34936 ft | 446 kts | 148° |
| 2026-05-05 19:55 | 42.29411 | 2.37091 | 34935 ft | 447 kts | 148° |
| 2026-05-05 19:55 | 42.24611 | 2.42427 | 34928 ft | 448 kts | 148° |
| 2026-05-05 19:56 | 42.19806 | 2.47758 | 34924 ft | 448 kts | 148° |
| 2026-05-05 19:56 | 42.14973 | 2.53111 | 34911 ft | 448 kts | 148° |
| 2026-05-05 19:57 | 42.10168 | 2.58421 | 34922 ft | 448 kts | 148° |
| 2026-05-05 19:57 | 42.05346 | 2.63738 | 34918 ft | 449 kts | 148° |
| 2026-05-05 19:58 | 42.00532 | 2.69038 | 34882 ft | 445 kts | 149° |
| 2026-05-05 19:58 | 41.98161 | 2.71654 | 34898 ft | 433 kts | 149° |
| 2026-05-05 19:58 | 41.95858 | 2.74190 | 34733 ft | 422 kts | 150° |
| 2026-05-05 19:58 | 41.93558 | 2.76444 | 34470 ft | 401 kts | 161° |
| 2026-05-05 19:59 | 41.91170 | 2.78360 | 34162 ft | 398 kts | 157° |
| 2026-05-05 19:59 | 41.89059 | 2.80789 | 33721 ft | 423 kts | 136° |
| 2026-05-05 19:59 | 41.87489 | 2.84205 | 33402 ft | 420 kts | 136° |
| 2026-05-05 19:59 | 41.85500 | 2.86814 | 33014 ft | 383 kts | 160° |
| 2026-05-05 20:00 | 41.83224 | 2.88415 | 32701 ft | 369 kts | 166° |
| 2026-05-05 20:00 | 41.80920 | 2.89939 | 32357 ft | 368 kts | 165° |
| 2026-05-05 20:00 | 41.78657 | 2.91594 | 32012 ft | 369 kts | 162° |
| 2026-05-05 20:00 | 41.76485 | 2.93360 | 31683 ft | 369 kts | 160° |
| 2026-05-05 20:01 | 41.74326 | 2.95252 | 31353 ft | 369 kts | 158° |
| 2026-05-05 20:01 | 41.72202 | 2.97201 | 30993 ft | 368 kts | 158° |
| 2026-05-05 20:01 | 41.70135 | 2.99142 | 30680 ft | 366 kts | 158° |
| 2026-05-05 20:01 | 41.68058 | 3.01114 | 30358 ft | 363 kts | 158° |
| 2026-05-05 20:02 | 41.65998 | 3.03074 | 30038 ft | 361 kts | 158° |
| 2026-05-05 20:02 | 41.63978 | 3.04995 | 29676 ft | 359 kts | 158° |
| 2026-05-05 20:02 | 41.61932 | 3.06911 | 29290 ft | 350 kts | 160° |
| 2026-05-05 20:02 | 41.59945 | 3.08756 | 29000 ft | 351 kts | 156° |
| 2026-05-05 20:03 | 41.57970 | 3.10678 | 28670 ft | 348 kts | 157° |
| 2026-05-05 20:03 | 41.55999 | 3.12561 | 28338 ft | 347 kts | 158° |
| 2026-05-05 20:03 | 41.54036 | 3.14413 | 28032 ft | 355 kts | 157° |
| 2026-05-05 20:03 | 41.51982 | 3.16341 | 27691 ft | 363 kts | 157° |
| 2026-05-05 20:04 | 41.49920 | 3.18290 | 27305 ft | 361 kts | 156° |
| 2026-05-05 20:04 | 41.47857 | 3.20146 | 26953 ft | 354 kts | 159° |
| 2026-05-05 20:04 | 41.45775 | 3.21870 | 26605 ft | 349 kts | 161° |
| 2026-05-05 20:04 | 41.43725 | 3.23524 | 26268 ft | 346 kts | 161° |
| 2026-05-05 20:05 | 41.41674 | 3.25174 | 25948 ft | 343 kts | 161° |
| 2026-05-05 20:05 | 41.39637 | 3.26818 | 25616 ft | 340 kts | 161° |
| 2026-05-05 20:05 | 41.37612 | 3.28461 | 25298 ft | 337 kts | 161° |
| 2026-05-05 20:05 | 41.35633 | 3.30071 | 24979 ft | 335 kts | 161° |
| 2026-05-05 20:06 | 41.33643 | 3.31693 | 24664 ft | 332 kts | 161° |
| 2026-05-05 20:06 | 41.31703 | 3.33274 | 24355 ft | 330 kts | 161° |
| 2026-05-05 20:06 | 41.29747 | 3.34869 | 24025 ft | 328 kts | 161° |
| 2026-05-05 20:06 | 41.27795 | 3.36459 | 23715 ft | 326 kts | 161° |
| 2026-05-05 20:07 | 41.25889 | 3.38011 | 23391 ft | 324 kts | 161° |
| 2026-05-05 20:07 | 41.23969 | 3.39574 | 23036 ft | 322 kts | 161° |
| 2026-05-05 20:07 | 41.22058 | 3.41128 | 22700 ft | 319 kts | 161° |
| 2026-05-05 20:07 | 41.20167 | 3.42666 | 22376 ft | 317 kts | 160° |
| 2026-05-05 20:08 | 41.18311 | 3.44175 | 22091 ft | 313 kts | 160° |
| 2026-05-05 20:08 | 41.16463 | 3.45686 | 21820 ft | 310 kts | 160° |
| 2026-05-05 20:08 | 41.14622 | 3.47193 | 21521 ft | 310 kts | 160° |
| 2026-05-05 20:08 | 41.12805 | 3.48680 | 21224 ft | 310 kts | 160° |
| 2026-05-05 20:09 | 41.10946 | 3.50197 | 20943 ft | 317 kts | 159° |
| 2026-05-05 20:09 | 41.09040 | 3.51750 | 20634 ft | 324 kts | 159° |
| 2026-05-05 20:09 | 41.07116 | 3.53322 | 20275 ft | 324 kts | 159° |
| 2026-05-05 20:09 | 41.05226 | 3.54869 | 19918 ft | 322 kts | 159° |
| 2026-05-05 20:10 | 41.03306 | 3.56428 | 19563 ft | 321 kts | 158° |
| 2026-05-05 20:10 | 41.01398 | 3.57974 | 19250 ft | 319 kts | 158° |
| 2026-05-05 20:10 | 40.99533 | 3.59482 | 18950 ft | 316 kts | 158° |
| 2026-05-05 20:10 | 40.97657 | 3.60998 | 18641 ft | 314 kts | 158° |
| 2026-05-05 20:11 | 40.95795 | 3.62503 | 18338 ft | 312 kts | 158° |
| 2026-05-05 20:11 | 40.93947 | 3.63995 | 18015 ft | 310 kts | 158° |
| 2026-05-05 20:11 | 40.92109 | 3.65479 | 17679 ft | 307 kts | 158° |
| 2026-05-05 20:11 | 40.90312 | 3.66928 | 17372 ft | 305 kts | 157° |
| 2026-05-05 20:12 | 40.88505 | 3.68385 | 17061 ft | 302 kts | 157° |
| 2026-05-05 20:12 | 40.86715 | 3.69827 | 16774 ft | 299 kts | 157° |
| 2026-05-05 20:12 | 40.84945 | 3.71252 | 16473 ft | 296 kts | 157° |
| 2026-05-05 20:12 | 40.83208 | 3.72650 | 16194 ft | 293 kts | 157° |
| 2026-05-05 20:13 | 40.81469 | 3.74048 | 15914 ft | 290 kts | 157° |
| 2026-05-05 20:13 | 40.79746 | 3.75432 | 15637 ft | 288 kts | 157° |
| 2026-05-05 20:13 | 40.78040 | 3.76801 | 15361 ft | 286 kts | 157° |
| 2026-05-05 20:13 | 40.76363 | 3.78146 | 15081 ft | 284 kts | 156° |
| 2026-05-05 20:14 | 40.74670 | 3.79504 | 14805 ft | 282 kts | 156° |
| 2026-05-05 20:14 | 40.72991 | 3.80849 | 14524 ft | 280 kts | 156° |
| 2026-05-05 20:14 | 40.71347 | 3.82167 | 14249 ft | 279 kts | 156° |
| 2026-05-05 20:14 | 40.69686 | 3.83497 | 13980 ft | 277 kts | 156° |
| 2026-05-05 20:15 | 40.68040 | 3.84813 | 13715 ft | 275 kts | 156° |
| 2026-05-05 20:15 | 40.66429 | 3.86101 | 13421 ft | 273 kts | 156° |
| 2026-05-05 20:15 | 40.64798 | 3.87404 | 13133 ft | 273 kts | 156° |
| 2026-05-05 20:15 | 40.63154 | 3.88715 | 12865 ft | 277 kts | 156° |
| 2026-05-05 20:16 | 40.61503 | 3.90030 | 12591 ft | 283 kts | 155° |
| 2026-05-05 20:16 | 40.59784 | 3.91399 | 12301 ft | 289 kts | 155° |
| 2026-05-05 20:16 | 40.58080 | 3.92760 | 11993 ft | 288 kts | 155° |
| 2026-05-05 20:16 | 40.56367 | 3.94129 | 11702 ft | 285 kts | 155° |
| 2026-05-05 20:17 | 40.54673 | 3.95481 | 11423 ft | 283 kts | 155° |
| 2026-05-05 20:17 | 40.53007 | 3.96808 | 11145 ft | 281 kts | 154° |
| 2026-05-05 20:17 | 40.51339 | 3.98134 | 10870 ft | 279 kts | 154° |
| 2026-05-05 20:17 | 40.49679 | 3.99370 | 10567 ft | 274 kts | 162° |
| 2026-05-05 20:18 | 40.47884 | 4.00161 | 10228 ft | 271 kts | 169° |
| 2026-05-05 20:18 | 40.46230 | 4.00726 | 10051 ft | 266 kts | 171° |
| 2026-05-05 20:18 | 40.45399 | 4.01000 | 9975 ft | 264 kts | 171° |
| 2026-05-05 20:18 | 40.45195 | 4.01067 | 9957 ft | 263 kts | 171° |
| 2026-05-05 20:19 | 40.43439 | 4.01644 | 9687 ft | 261 kts | 171° |
| 2026-05-05 20:19 | 40.41677 | 4.02233 | 9413 ft | 260 kts | 170° |
| 2026-05-05 20:19 | 40.39928 | 4.02828 | 9126 ft | 258 kts | 170° |
| 2026-05-05 20:19 | 40.38191 | 4.03426 | 8861 ft | 256 kts | 170° |
| 2026-05-05 20:20 | 40.36493 | 4.04017 | 8608 ft | 255 kts | 170° |
| 2026-05-05 20:20 | 40.34782 | 4.04615 | 8351 ft | 253 kts | 170° |
| 2026-05-05 20:20 | 40.33083 | 4.05211 | 8091 ft | 252 kts | 169° |
| 2026-05-05 20:20 | 40.31388 | 4.05807 | 7836 ft | 252 kts | 169° |
| 2026-05-05 20:21 | 40.29675 | 4.06410 | 7610 ft | 256 kts | 169° |
| 2026-05-05 20:21 | 40.27943 | 4.07018 | 7368 ft | 264 kts | 169° |
| 2026-05-05 20:21 | 40.26144 | 4.07651 | 7104 ft | 269 kts | 169° |
| 2026-05-05 20:21 | 40.24351 | 4.08285 | 6824 ft | 268 kts | 169° |
| 2026-05-05 20:22 | 40.22550 | 4.08921 | 6548 ft | 267 kts | 169° |
| 2026-05-05 20:22 | 40.21366 | 4.09340 | 6366 ft | 266 kts | 169° |
| 2026-05-05 20:22 | 40.19575 | 4.09972 | 6078 ft | 265 kts | 169° |
| 2026-05-05 20:22 | 40.17805 | 4.10596 | 5783 ft | 264 kts | 169° |
| 2026-05-05 20:23 | 40.16032 | 4.11222 | 5508 ft | 263 kts | 169° |
| 2026-05-05 20:23 | 40.14267 | 4.11840 | 5235 ft | 261 kts | 169° |
| 2026-05-05 20:23 | 40.12514 | 4.12460 | 4970 ft | 261 kts | 168° |
| 2026-05-05 20:23 | 40.10762 | 4.13082 | 4708 ft | 260 kts | 169° |
| 2026-05-05 20:24 | 40.09121 | 4.14014 | 4419 ft | 265 kts | 144° |
| 2026-05-05 20:24 | 40.08028 | 4.15947 | 4171 ft | 268 kts | 111° |
| 2026-05-05 20:24 | 40.07789 | 4.18338 | 4067 ft | 261 kts | 85° |
| 2026-05-05 20:24 | 40.08013 | 4.20631 | 3940 ft | 254 kts | 83° |
| 2026-05-05 20:25 | 40.08050 | 4.22906 | 3804 ft | 248 kts | 102° |
| 2026-05-05 20:25 | 40.07264 | 4.24816 | 3706 ft | 235 kts | 142° |
| 2026-05-05 20:25 | 40.05814 | 4.25604 | 3619 ft | 226 kts | 182° |
| 2026-05-05 20:25 | 40.04306 | 4.25232 | 3452 ft | 217 kts | 199° |
| 2026-05-05 20:26 | 40.02861 | 4.24859 | 3325 ft | 207 kts | 193° |
| 2026-05-05 20:26 | 40.01457 | 4.24603 | 3110 ft | 199 kts | 192° |
| 2026-05-05 20:26 | 40.00136 | 4.24367 | 2848 ft | 187 kts | 192° |
| 2026-05-05 20:26 | 39.98893 | 4.24141 | 2625 ft | 173 kts | 192° |
| 2026-05-05 20:27 | 39.97736 | 4.23930 | 2396 ft | 162 kts | 192° |
| 2026-05-05 20:27 | 39.96631 | 4.23728 | 2188 ft | 157 kts | 193° |
| 2026-05-05 20:27 | 39.95553 | 4.23529 | 2009 ft | 156 kts | 192° |
| 2026-05-05 20:27 | 39.94471 | 4.23331 | 1768 ft | 156 kts | 191° |
| 2026-05-05 20:28 | 39.93427 | 4.23185 | 1611 ft | 150 kts | 187° |
| 2026-05-05 20:28 | 39.92385 | 4.23094 | 1502 ft | 153 kts | 188° |
| 2026-05-05 20:28 | 39.91311 | 4.22928 | 1250 ft | 155 kts | 194° |
| 2026-05-05 20:28 | 39.90241 | 4.22709 | 965 ft | 155 kts | 192° |
| 2026-05-05 20:29 | 39.89206 | 4.22475 | 680 ft | 151 kts | 190° |
| 2026-05-05 20:29 | 39.88208 | 4.22271 | 518 ft | 144 kts | 191° |
| 2026-05-05 20:29 | 39.87204 | 4.22065 | 347 ft | 149 kts | 190° |
| 2026-05-05 20:29 | 39.86267 | 4.21869 | 303 ft | 125 kts | 190° |
| 2026-05-05 20:30 | 39.85625 | 4.21735 | 292 ft | 61 kts | 189° |
| 2026-05-05 20:30 | 39.85404 | 4.21689 | 286 ft | 17 kts | 188° |
| 2026-05-05 20:30 | 39.85259 | 4.21659 | 284 ft | 24 kts | 189° |
| 2026-05-05 20:30 | 39.85139 | 4.21708 | 284 ft | 20 kts | 99° |
| 2026-05-05 20:31 | 39.85163 | 4.21876 | 280 ft | 21 kts | 21° |
| 2026-05-05 20:31 | 39.85304 | 4.21908 | 280 ft | 20 kts | 9° |
| 2026-05-05 20:31 | 39.85441 | 4.21935 | 282 ft | 20 kts | 8° |
| 2026-05-05 20:31 | 39.85574 | 4.21961 | 286 ft | 19 kts | 9° |
| 2026-05-05 20:32 | 39.85703 | 4.21988 | 292 ft | 18 kts | 9° |
| 2026-05-05 20:32 | 39.85827 | 4.22014 | 293 ft | 18 kts | 9° |
| 2026-05-05 20:32 | 39.85946 | 4.22038 | 297 ft | 17 kts | 8° |
| 2026-05-05 20:32 | 39.86071 | 4.22064 | 296 ft | 20 kts | 9° |
| 2026-05-05 20:33 | 39.86223 | 4.22095 | 293 ft | 24 kts | 9° |
| 2026-05-05 20:33 | 39.86373 | 4.22127 | 293 ft | 18 kts | 9° |
| 2026-05-05 20:33 | 39.86496 | 4.22152 | 294 ft | 15 kts | 9° |
| 2026-05-05 20:33 | 39.86540 | 4.22239 | 294 ft | 13 kts | 96° |
| 2026-05-05 20:34 | 39.86530 | 4.22302 | 288 ft | 7 kts | 118° |
| 2026-05-05 20:34 | 39.86479 | 4.22319 | 287 ft | 9 kts | 189° |
| 2026-05-05 20:34 | 39.86424 | 4.22290 | 290 ft | 7 kts | 248° |
| 2026-05-05 20:34 | 39.86434 | 4.22233 | 292 ft | 4 kts | 315° |
| 2026-05-05 20:35 | 39.86458 | 4.22234 | 292 ft | 1 kts | 31° |
| 2026-05-05 20:35 | 39.86463 | 4.22244 | 292 ft | 2 kts | 54° |
| 2026-05-05 20:35 | 39.86464 | 4.22245 | 292 ft | 0 kts | 54° |